createdAt,value
2019-05-23T00:01:18.879Z,13.15
2019-05-23T00:03:49.973Z,12.99
2019-05-23T00:06:24.035Z,12.85
2019-05-23T00:08:55.298Z,12.83
2019-05-23T00:11:29.338Z,13.02
2019-05-23T00:14:00.499Z,13.02
2019-05-23T00:16:30.913Z,13.06
2019-05-23T00:19:00.536Z,13.05
2019-05-23T00:21:30.799Z,12.98
2019-05-23T00:24:00.780Z,13.08
2019-05-23T00:26:30.216Z,13.09
2019-05-23T00:29:10.133Z,13.09
2019-05-23T00:31:51.633Z,12.96
2019-05-23T00:34:21.614Z,12.96
2019-05-23T00:36:51.227Z,12.98
2019-05-23T00:39:21.322Z,12.89
2019-05-23T00:41:51.431Z,12.94
2019-05-23T00:44:21.034Z,12.97
2019-05-23T00:46:50.953Z,12.90
2019-05-23T00:49:20.408Z,12.75
2019-05-23T00:51:50.336Z,12.67
2019-05-23T00:54:19.966Z,12.68
2019-05-23T00:56:50.464Z,12.58
2019-05-23T00:59:27.254Z,12.64
2019-05-23T01:01:52.477Z,12.62
2019-05-23T01:04:22.642Z,12.66
2019-05-23T01:06:52.257Z,12.58
2019-05-23T01:09:22.774Z,12.62
2019-05-23T01:11:52.234Z,12.56
2019-05-23T01:14:22.303Z,12.61
2019-05-23T01:16:51.738Z,12.47
2019-05-23T01:19:21.350Z,12.50
2019-05-23T01:21:55.421Z,12.39
2019-05-23T01:24:42.131Z,12.46
2019-05-23T01:27:13.243Z,12.31
2019-05-23T01:29:49.714Z,12.38
2019-05-23T01:32:23.606Z,12.39
2019-05-23T01:34:53.854Z,12.33
2019-05-23T01:37:24.729Z,12.21
2019-05-23T01:39:54.829Z,12.17
2019-05-23T01:42:25.879Z,11.95
2019-05-23T01:44:55.758Z,12.05
2019-05-23T01:47:26.257Z,12.08
2019-05-23T01:49:56.809Z,12.02
2019-05-23T01:52:26.344Z,12.11
2019-05-23T01:54:56.105Z,12.09
2019-05-23T01:57:26.279Z,11.92
2019-05-23T02:00:09.089Z,12.00
2019-05-23T02:02:29.235Z,11.96
2019-05-23T02:04:59.323Z,12.04
2019-05-23T02:07:30.619Z,11.97
2019-05-23T02:10:00.322Z,12.00
2019-05-23T02:12:30.950Z,12.02
2019-05-23T02:15:00.641Z,11.94
2019-05-23T02:17:31.518Z,12.02
2019-05-23T02:20:01.745Z,12.01
2019-05-23T02:22:31.340Z,11.94
2019-05-23T02:25:02.325Z,11.76
2019-05-23T02:27:33.101Z,11.73
2019-05-23T02:30:02.606Z,11.82
2019-05-23T02:32:34.067Z,11.76
2019-05-23T02:35:06.250Z,11.67
2019-05-23T02:37:38.600Z,11.56
2019-05-23T02:40:12.270Z,11.52
2019-05-23T02:42:43.355Z,11.49
2019-05-23T02:45:20.827Z,11.58
2019-05-23T02:47:50.563Z,11.60
2019-05-23T02:50:39.930Z,11.65
2019-05-23T02:53:13.714Z,11.65
2019-05-23T02:55:45.081Z,11.53
2019-05-23T02:58:44.030Z,11.51
2019-05-23T03:01:34.451Z,11.48
2019-05-23T03:04:06.297Z,11.51
2019-05-23T03:06:38.083Z,11.53
2019-05-23T03:09:08.593Z,11.39
2019-05-23T03:11:40.108Z,11.36
2019-05-23T03:14:10.843Z,11.35
2019-05-23T03:16:43.184Z,11.39
2019-05-23T03:19:32.339Z,11.39
2019-05-23T03:22:25.093Z,11.38
2019-05-23T03:24:55.079Z,11.38
2019-05-23T03:27:26.433Z,11.35
2019-05-23T03:29:56.438Z,11.38
2019-05-23T03:32:37.563Z,11.35
2019-05-23T03:35:06.045Z,11.40
2019-05-23T03:37:35.727Z,11.37
2019-05-23T03:40:08.424Z,11.48
2019-05-23T03:42:38.711Z,11.47
2019-05-23T03:45:10.429Z,11.45
2019-05-23T03:47:40.523Z,11.52
2019-05-23T03:50:11.746Z,11.45
2019-05-23T03:52:41.946Z,11.45
2019-05-23T03:55:11.895Z,11.29
2019-05-23T03:57:42.671Z,11.31
2019-05-23T04:00:15.759Z,11.26
2019-05-23T04:02:46.214Z,11.36
2019-05-23T04:05:16.396Z,11.37
2019-05-23T04:07:45.909Z,11.22
2019-05-23T04:10:15.483Z,11.42
2019-05-23T04:12:45.007Z,11.44
2019-05-23T04:15:14.985Z,11.59
2019-05-23T04:17:44.684Z,11.54
2019-05-23T04:20:14.595Z,11.61
2019-05-23T04:22:44.389Z,11.75
2019-05-23T04:25:14.094Z,11.84
2019-05-23T04:27:43.546Z,11.98
2019-05-23T04:30:13.158Z,12.08
2019-05-23T04:32:42.602Z,12.12
2019-05-23T04:35:12.361Z,12.27
2019-05-23T04:37:42.334Z,12.28
2019-05-23T04:40:13.307Z,12.34
2019-05-23T04:42:42.817Z,12.29
2019-05-23T04:45:12.768Z,12.33
2019-05-23T04:47:42.475Z,12.26
2019-05-23T04:50:14.353Z,12.40
2019-05-23T04:52:44.102Z,12.42
2019-05-23T04:55:15.281Z,12.39
2019-05-23T04:57:45.535Z,12.46
2019-05-23T05:00:20.190Z,12.40
2019-05-23T05:02:49.768Z,12.49
2019-05-23T05:05:19.764Z,12.56
2019-05-23T05:07:49.745Z,12.58
2019-05-23T05:10:22.428Z,12.61
2019-05-23T05:12:52.170Z,12.75
2019-05-23T05:15:23.244Z,12.81
2019-05-23T05:17:52.820Z,12.89
2019-05-23T05:20:22.502Z,12.97
2019-05-23T05:22:52.419Z,13.10
2019-05-23T05:25:21.947Z,13.31
2019-05-23T05:27:51.729Z,13.43
2019-05-23T05:30:21.444Z,13.43
2019-05-23T05:32:51.212Z,13.41
2019-05-23T05:35:20.735Z,13.17
2019-05-23T05:37:50.191Z,13.38
2019-05-23T05:40:20.043Z,13.48
2019-05-23T05:42:49.502Z,13.62
2019-05-23T05:45:19.586Z,13.42
2019-05-23T05:47:49.054Z,13.52
2019-05-23T05:50:18.834Z,13.69
2019-05-23T05:52:48.542Z,13.92
2019-05-23T05:55:18.005Z,14.00
2019-05-23T05:57:47.456Z,14.09
2019-05-23T06:00:27.389Z,14.23
2019-05-23T06:03:04.084Z,14.31
2019-05-23T06:05:48.473Z,14.47
2019-05-23T06:08:19.565Z,14.48
2019-05-23T06:10:49.251Z,14.58
2019-05-23T06:13:18.782Z,14.47
2019-05-23T06:15:48.918Z,14.74
2019-05-23T06:18:19.291Z,14.79
2019-05-23T06:20:49.868Z,14.86
2019-05-23T06:23:20.057Z,15.10
2019-05-23T06:25:49.862Z,15.15
2019-05-23T06:28:20.325Z,15.23
2019-05-23T06:30:51.414Z,15.39
2019-05-23T06:33:23.987Z,15.29
2019-05-23T06:35:52.905Z,15.59
2019-05-23T06:38:23.218Z,15.80
2019-05-23T06:40:54.627Z,16.01
2019-05-23T06:43:24.815Z,16.06
2019-05-23T06:45:54.553Z,16.21
2019-05-23T06:48:24.210Z,16.49
2019-05-23T06:50:53.747Z,16.69
2019-05-23T06:53:23.267Z,16.58
2019-05-23T06:55:52.714Z,16.65
2019-05-23T06:58:23.228Z,16.88
2019-05-23T07:00:53.063Z,16.81
2019-05-23T07:03:39.913Z,16.64
2019-05-23T07:05:53.972Z,16.86
2019-05-23T07:08:28.055Z,17.03
2019-05-23T07:10:57.599Z,17.26
2019-05-23T07:13:29.723Z,17.13
2019-05-23T07:15:59.502Z,17.41
2019-05-23T07:18:29.166Z,17.35
2019-05-23T07:20:58.612Z,17.66
2019-05-23T07:23:28.480Z,17.76
2019-05-23T07:25:57.949Z,18.02
2019-05-23T07:28:27.387Z,18.10
2019-05-23T07:30:56.996Z,18.26
2019-05-23T07:33:26.511Z,18.12
2019-05-23T07:35:56.620Z,18.40
2019-05-23T07:38:26.068Z,18.47
2019-05-23T07:40:56.963Z,18.58
2019-05-23T07:43:26.509Z,18.77
2019-05-23T07:45:59.198Z,18.81
2019-05-23T07:48:29.339Z,19.08
2019-05-23T07:50:58.974Z,19.14
2019-05-23T07:53:43.737Z,19.28
2019-05-23T07:56:13.362Z,19.12
2019-05-23T07:58:43.274Z,18.95
2019-05-23T08:01:14.759Z,19.24
2019-05-23T08:03:45.357Z,19.05
2019-05-23T08:06:15.451Z,19.34
2019-05-23T08:08:44.919Z,19.24
2019-05-23T08:11:14.394Z,19.68
2019-05-23T08:13:44.466Z,19.57
2019-05-23T08:16:13.949Z,19.65
2019-05-23T08:18:43.855Z,20.06
2019-05-23T08:21:13.348Z,19.94
2019-05-23T08:23:42.842Z,19.86
2019-05-23T08:26:13.069Z,20.20
2019-05-23T08:29:11.396Z,20.34
2019-05-23T08:31:13.884Z,20.53
2019-05-23T08:33:43.775Z,20.55
2019-05-23T08:36:13.385Z,20.66
2019-05-23T08:38:42.849Z,20.87
2019-05-23T08:41:12.408Z,21.08
2019-05-23T08:43:41.932Z,21.18
2019-05-23T08:46:12.537Z,21.28
2019-05-23T08:48:42.141Z,21.51
2019-05-23T08:51:11.699Z,21.53
2019-05-23T08:53:41.194Z,21.86
2019-05-23T08:56:19.165Z,21.88
2019-05-23T08:58:42.548Z,21.81
2019-05-23T09:01:11.999Z,22.24
2019-05-23T09:06:11.232Z,22.20
2019-05-23T09:08:41.463Z,22.43
2019-05-23T09:11:11.242Z,22.38
2019-05-23T09:13:40.828Z,22.52
2019-05-23T09:16:10.815Z,22.75
2019-05-23T09:18:40.321Z,22.91
2019-05-23T09:21:10.159Z,22.90
2019-05-23T09:23:39.875Z,22.69
2019-05-23T09:26:09.344Z,23.14
2019-05-23T09:28:39.094Z,23.18
2019-05-23T09:31:09.146Z,23.42
2019-05-23T09:33:38.774Z,23.21
2019-05-23T09:36:08.747Z,23.79
2019-05-23T09:38:38.445Z,24.20
2019-05-23T09:41:07.903Z,23.81
2019-05-23T09:43:37.488Z,24.23
2019-05-23T09:46:06.955Z,24.61
2019-05-23T09:48:36.641Z,24.73
2019-05-23T09:51:06.088Z,25.04
2019-05-23T09:53:35.573Z,24.78
2019-05-23T09:56:05.163Z,24.62
2019-05-23T09:58:34.607Z,24.56
2019-05-23T10:01:04.509Z,24.85
2019-05-23T10:03:33.958Z,25.08
2019-05-23T10:06:03.405Z,24.84
2019-05-23T10:08:33.007Z,24.78
2019-05-23T10:11:02.457Z,24.48
2019-05-23T10:13:39.011Z,24.25
2019-05-23T10:16:07.892Z,24.48
2019-05-23T10:18:37.522Z,24.41
2019-05-23T10:21:07.037Z,23.89
2019-05-23T10:23:36.647Z,23.62
2019-05-23T10:26:06.738Z,23.48
2019-05-23T10:28:36.312Z,23.53
2019-05-23T10:31:07.064Z,23.86
2019-05-23T10:33:36.686Z,23.80
2019-05-23T10:36:06.284Z,24.04
2019-05-23T10:38:35.739Z,23.73
2019-05-23T10:41:05.623Z,23.59
2019-05-23T10:43:35.091Z,23.65
2019-05-23T10:46:04.878Z,24.04
2019-05-23T10:48:34.580Z,24.04
2019-05-23T10:51:04.115Z,24.65
2019-05-23T10:53:33.672Z,25.00
2019-05-23T10:56:03.271Z,25.36
2019-05-23T10:58:33.446Z,25.44
2019-05-23T11:01:03.503Z,25.70
2019-05-23T11:03:33.461Z,25.92
2019-05-23T11:06:15.591Z,25.96
2019-05-23T11:08:36.376Z,26.05
2019-05-23T11:11:07.739Z,26.30
2019-05-23T11:13:37.188Z,25.96
2019-05-23T11:16:06.643Z,25.62
2019-05-23T11:18:36.124Z,25.08
2019-05-23T11:21:06.107Z,25.42
2019-05-23T11:23:37.261Z,25.31
2019-05-23T11:26:08.233Z,25.35
2019-05-23T11:28:37.740Z,25.91
2019-05-23T11:31:09.169Z,26.44
2019-05-23T11:33:38.637Z,26.46
2019-05-23T11:36:08.083Z,26.43
2019-05-23T11:38:37.668Z,26.54
2019-05-23T11:41:07.436Z,26.74
2019-05-23T11:43:36.889Z,26.91
2019-05-23T11:46:17.247Z,27.30
2019-05-23T11:48:46.775Z,27.26
2019-05-23T11:51:16.977Z,27.37
2019-05-23T11:54:04.068Z,27.13
2019-05-23T11:56:17.760Z,26.90
2019-05-23T11:58:47.257Z,27.20
2019-05-23T12:01:21.242Z,27.30
2019-05-23T12:03:51.892Z,27.37
2019-05-23T12:06:25.738Z,27.10
2019-05-23T12:08:53.259Z,27.50
2019-05-23T12:11:22.776Z,27.96
2019-05-23T12:13:52.290Z,28.23
2019-05-23T12:16:23.357Z,28.43
2019-05-23T12:18:53.265Z,28.74
2019-05-23T12:21:23.525Z,28.54
2019-05-23T12:23:53.098Z,28.88
2019-05-23T12:26:22.645Z,29.04
2019-05-23T12:28:52.093Z,29.15
2019-05-23T12:31:21.682Z,29.30
2019-05-23T12:33:51.146Z,28.92
2019-05-23T12:36:20.742Z,28.86
2019-05-23T12:38:51.808Z,29.19
2019-05-23T12:41:21.454Z,29.07
2019-05-23T12:43:50.918Z,29.11
2019-05-23T12:46:20.426Z,29.08
2019-05-23T12:48:51.590Z,29.24
2019-05-23T12:51:25.521Z,29.29
2019-05-23T12:53:56.603Z,29.70
2019-05-23T12:56:26.589Z,30.36
2019-05-23T12:58:56.433Z,30.25
2019-05-23T13:01:27.049Z,29.58
2019-05-23T13:03:56.823Z,29.46
2019-05-23T13:06:26.918Z,29.81
2019-05-23T13:08:56.440Z,29.87
2019-05-23T13:11:25.964Z,29.07
2019-05-23T13:13:55.479Z,28.03
2019-05-23T13:16:25.311Z,28.31
2019-05-23T13:18:54.819Z,28.01
2019-05-23T13:21:24.282Z,27.65
2019-05-23T13:23:55.747Z,27.91
2019-05-23T13:26:25.168Z,27.28
2019-05-23T13:28:54.614Z,27.44
2019-05-23T13:31:24.146Z,27.88
2019-05-23T13:33:56.242Z,28.06
2019-05-23T13:36:24.961Z,28.36
2019-05-23T13:38:54.404Z,28.41
2019-05-23T13:41:23.987Z,29.03
2019-05-23T13:43:53.793Z,29.29
2019-05-23T13:46:23.265Z,29.78
2019-05-23T13:48:52.834Z,29.74
2019-05-23T13:51:22.312Z,29.69
2019-05-23T13:53:51.769Z,29.10
2019-05-23T13:56:21.581Z,28.97
2019-05-23T13:58:51.096Z,29.20
2019-05-23T14:01:21.334Z,29.27
2019-05-23T14:03:51.000Z,29.03
2019-05-23T14:06:20.460Z,28.67
2019-05-23T14:08:49.909Z,28.78
2019-05-23T14:11:19.405Z,28.67
2019-05-23T14:13:58.328Z,28.59
2019-05-23T14:16:20.525Z,28.44
2019-05-23T14:18:50.253Z,28.30
2019-05-23T14:21:19.888Z,28.65
2019-05-23T14:23:49.395Z,28.78
2019-05-23T14:26:19.893Z,29.25
2019-05-23T14:28:49.363Z,30.46
2019-05-23T14:31:19.031Z,30.72
2019-05-23T14:33:50.187Z,30.21
2019-05-23T14:36:37.031Z,29.99
2019-05-23T14:39:10.345Z,29.86
2019-05-23T14:41:45.681Z,29.39
2019-05-23T14:44:15.328Z,29.50
2019-05-23T14:46:46.452Z,30.81
2019-05-23T14:49:20.017Z,31.72
2019-05-23T14:51:53.799Z,31.75
2019-05-23T14:54:30.874Z,32.29
2019-05-23T14:57:00.352Z,32.10
2019-05-23T14:59:30.516Z,31.85
2019-05-23T15:02:00.473Z,32.04
2019-05-23T15:04:30.209Z,33.14
2019-05-23T15:06:59.653Z,33.71
2019-05-23T15:09:29.185Z,34.25
2019-05-23T15:11:59.144Z,34.94
2019-05-23T15:14:28.568Z,34.88
2019-05-23T15:16:58.036Z,34.75
2019-05-23T15:19:41.782Z,35.98
2019-05-23T15:21:58.662Z,35.60
2019-05-23T15:24:28.970Z,34.22
2019-05-23T15:26:58.648Z,33.63
2019-05-23T15:29:29.235Z,33.06
2019-05-23T15:32:02.840Z,33.12
2019-05-23T15:34:30.155Z,33.72
2019-05-23T15:36:59.599Z,34.47
2019-05-23T15:39:29.636Z,34.88
2019-05-23T15:41:59.167Z,34.14
2019-05-23T15:44:30.170Z,33.23
2019-05-23T15:46:59.885Z,32.57
2019-05-23T15:49:30.124Z,32.26
2019-05-23T15:52:01.297Z,31.11
2019-05-23T15:54:41.387Z,30.11
2019-05-23T15:57:18.327Z,29.74
2019-05-23T16:00:01.561Z,29.92
2019-05-23T16:02:38.407Z,31.00
2019-05-23T16:05:10.683Z,31.89
2019-05-23T16:07:40.128Z,32.16
2019-05-23T16:10:10.627Z,31.27
2019-05-23T16:12:40.087Z,30.87
2019-05-23T16:15:09.734Z,30.58
2019-05-23T16:17:39.305Z,29.79
2019-05-23T16:20:09.266Z,29.59
2019-05-23T16:22:38.726Z,29.43
2019-05-23T16:25:08.511Z,29.55
2019-05-23T16:27:38.365Z,29.42
2019-05-23T16:30:09.152Z,29.59
2019-05-23T16:32:38.613Z,30.84
2019-05-23T16:35:08.156Z,32.17
2019-05-23T16:37:37.667Z,33.60
2019-05-23T16:40:09.476Z,33.75
2019-05-23T16:42:38.944Z,33.82
2019-05-23T16:45:08.925Z,34.95
2019-05-23T16:47:38.848Z,34.54
2019-05-23T16:50:08.866Z,34.09
2019-05-23T16:52:38.493Z,33.78
2019-05-23T16:55:09.656Z,34.16
2019-05-23T16:57:38.881Z,35.45
2019-05-23T17:00:14.585Z,35.03
2019-05-23T17:02:45.686Z,34.08
2019-05-23T17:05:32.976Z,33.38
2019-05-23T17:08:10.042Z,32.38
2019-05-23T17:10:42.076Z,31.74
2019-05-23T17:13:29.435Z,31.67
2019-05-23T17:16:01.621Z,32.22
2019-05-23T17:18:32.841Z,33.18
2019-05-23T17:21:06.885Z,34.42
2019-05-23T17:23:38.214Z,35.60
2019-05-23T17:26:21.242Z,36.48
2019-05-23T17:28:54.918Z,36.67
2019-05-23T17:31:29.109Z,36.79
2019-05-23T17:33:58.632Z,36.39
2019-05-23T17:36:28.091Z,36.32
2019-05-23T17:38:57.811Z,36.79
2019-05-23T17:41:27.622Z,36.74
2019-05-23T17:43:57.086Z,36.88
2019-05-23T17:46:26.569Z,36.98
2019-05-23T17:48:56.144Z,36.88
2019-05-23T17:51:25.858Z,35.99
2019-05-23T17:53:55.401Z,35.71
2019-05-23T17:56:25.144Z,35.81
2019-05-23T17:58:54.655Z,35.74
2019-05-23T18:01:25.736Z,35.09
2019-05-23T18:03:55.196Z,34.44
2019-05-23T18:06:25.151Z,33.78
2019-05-23T18:08:54.758Z,33.11
2019-05-23T18:11:24.680Z,32.59
2019-05-23T18:13:54.335Z,32.05
2019-05-23T18:16:24.288Z,31.88
2019-05-23T18:18:53.889Z,31.49
2019-05-23T18:21:23.994Z,31.24
2019-05-23T18:23:53.945Z,30.83
2019-05-23T18:26:23.389Z,30.44
2019-05-23T18:28:53.289Z,30.07
2019-05-23T18:31:24.374Z,29.83
2019-05-23T18:33:54.142Z,29.54
2019-05-23T18:36:23.662Z,28.94
2019-05-23T18:38:53.864Z,28.63
2019-05-23T18:41:23.344Z,28.22
2019-05-23T18:43:53.328Z,27.57
2019-05-23T18:46:24.563Z,27.42
2019-05-23T18:48:55.680Z,27.06
2019-05-23T18:51:25.302Z,26.78
2019-05-23T18:53:54.976Z,26.54
2019-05-23T18:56:24.602Z,26.23
2019-05-23T18:58:54.131Z,25.86
2019-05-23T19:01:25.797Z,25.53
2019-05-23T19:03:59.518Z,25.25
2019-05-23T19:06:29.571Z,24.98
2019-05-23T19:08:59.109Z,24.62
2019-05-23T19:11:28.639Z,24.18
2019-05-23T19:13:58.271Z,23.83
2019-05-23T19:16:28.350Z,23.47
2019-05-23T19:18:58.245Z,23.30
2019-05-23T19:21:28.526Z,23.08
2019-05-23T19:23:58.233Z,22.79
2019-05-23T19:26:28.101Z,22.56
2019-05-23T19:28:57.803Z,22.50
2019-05-23T19:31:27.703Z,22.47
2019-05-23T19:33:58.502Z,22.37
2019-05-23T19:36:28.245Z,22.30
2019-05-23T19:38:57.699Z,22.05
2019-05-23T19:41:36.816Z,21.95
2019-05-23T19:43:58.547Z,21.83
2019-05-23T19:46:28.084Z,21.78
2019-05-23T19:48:57.963Z,21.66
2019-05-23T19:51:27.702Z,21.56
2019-05-23T19:53:58.852Z,20.80
2019-05-23T19:56:28.953Z,20.37
2019-05-23T19:58:58.565Z,20.68
2019-05-23T20:01:32.290Z,20.67
2019-05-23T20:04:00.916Z,20.72
2019-05-23T20:06:31.493Z,20.22
2019-05-23T20:09:01.727Z,19.79
2019-05-23T20:11:31.314Z,20.35
2019-05-23T20:14:00.951Z,20.29
2019-05-23T20:16:30.745Z,20.35
2019-05-23T20:19:00.261Z,20.35
2019-05-23T20:21:29.994Z,20.41
2019-05-23T20:23:59.612Z,20.31
2019-05-23T20:26:29.133Z,20.33
2019-05-23T20:28:58.640Z,20.34
2019-05-23T20:31:28.161Z,20.05
2019-05-23T20:33:59.522Z,20.11
2019-05-23T20:36:28.947Z,20.15
2019-05-23T20:38:58.470Z,20.14
2019-05-23T20:41:28.384Z,20.02
2019-05-23T20:43:59.453Z,19.91
2019-05-23T20:46:28.970Z,19.63
2019-05-23T20:48:58.438Z,19.67
2019-05-23T20:51:27.953Z,19.29
2019-05-23T20:53:57.463Z,19.15
2019-05-23T20:56:26.923Z,19.20
2019-05-23T20:58:56.368Z,19.23
2019-05-23T21:01:33.214Z,19.22
2019-05-23T21:04:02.699Z,18.99
2019-05-23T21:06:32.182Z,18.98
2019-05-23T21:09:01.644Z,18.83
2019-05-23T21:11:31.319Z,18.60
2019-05-23T21:14:00.832Z,18.64
2019-05-23T21:16:30.359Z,18.63
2019-05-23T21:19:00.007Z,18.63
2019-05-23T21:21:29.522Z,18.59
2019-05-23T21:23:59.129Z,18.51
2019-05-23T21:26:28.716Z,18.52
2019-05-23T21:28:58.173Z,18.48
2019-05-23T21:31:27.767Z,18.47
2019-05-23T21:33:57.249Z,18.38
2019-05-23T21:36:26.702Z,18.09
2019-05-23T21:38:56.163Z,18.17
2019-05-23T21:41:25.610Z,18.23
2019-05-23T21:43:56.712Z,18.25
2019-05-23T21:46:26.208Z,18.24
2019-05-23T21:48:55.627Z,18.21
2019-05-23T21:51:25.208Z,18.13
2019-05-23T21:53:54.678Z,18.10
2019-05-23T21:56:24.163Z,18.07
2019-05-23T21:58:53.833Z,18.03
2019-05-23T22:01:24.367Z,17.90
2019-05-23T22:04:05.174Z,17.78
2019-05-23T22:06:39.350Z,17.79
2019-05-23T22:09:10.673Z,17.73
2019-05-23T22:11:40.197Z,17.58
2019-05-23T22:14:09.913Z,17.55
2019-05-23T22:16:39.530Z,17.50
2019-05-23T22:19:10.590Z,17.50
2019-05-23T22:21:40.047Z,17.43
2019-05-23T22:24:09.739Z,17.35
2019-05-23T22:26:39.182Z,17.24
2019-05-23T22:29:09.212Z,17.24
2019-05-23T22:31:38.894Z,17.20
2019-05-23T22:34:15.663Z,17.21
2019-05-23T22:36:45.116Z,17.13
2019-05-23T22:39:14.569Z,17.06
2019-05-23T22:41:44.026Z,16.99
2019-05-23T22:44:13.816Z,16.90
2019-05-23T22:46:43.523Z,16.80
2019-05-23T22:49:12.970Z,16.80
2019-05-23T22:51:42.413Z,16.79
2019-05-23T22:54:11.882Z,16.69
2019-05-23T22:56:41.403Z,16.70
2019-05-23T22:59:10.917Z,16.73
2019-05-23T23:01:40.460Z,16.62
2019-05-23T23:04:11.070Z,16.54
2019-05-23T23:06:40.514Z,16.54
2019-05-23T23:09:10.037Z,16.55
2019-05-23T23:11:39.668Z,16.59
2019-05-23T23:14:09.113Z,16.48
2019-05-23T23:16:38.561Z,16.50
2019-05-23T23:19:08.350Z,16.50
2019-05-23T23:21:37.843Z,16.39
2019-05-23T23:24:07.306Z,16.40
2019-05-23T23:26:36.750Z,16.46
2019-05-23T23:29:06.587Z,16.47
2019-05-23T23:31:36.033Z,16.35
2019-05-23T23:34:05.548Z,16.28
2019-05-23T23:36:35.008Z,16.30
2019-05-23T23:39:05.535Z,16.31
2019-05-23T23:41:35.002Z,16.32
2019-05-23T23:44:05.227Z,16.29
2019-05-23T23:46:52.080Z,16.35
2019-05-23T23:49:39.333Z,16.22
2019-05-23T23:52:26.502Z,16.10
2019-05-23T23:55:13.583Z,16.05
2019-05-23T23:58:00.020Z,16.04
